sensor_id;sensor_type;location;lat;lon;timestamp;pressure;altitude;pressure_sealevel;temperature;humidity
3434;BME280;1730;41.932;25.548;2023-07-22T00:01:22;98985.84;;;26.36;100.00
3434;BME280;1730;41.932;25.548;2023-07-22T00:03:48;99003.22;;;26.32;100.00
3434;BME280;1730;41.932;25.548;2023-07-22T00:06:13;99001.38;;;26.16;100.00
3434;BME280;1730;41.932;25.548;2023-07-22T00:08:39;99000.47;;;26.05;100.00
3434;BME280;1730;41.932;25.548;2023-07-22T00:11:05;99002.09;;;26.33;100.00
3434;BME280;1730;41.932;25.548;2023-07-22T00:13:31;99004.66;;;26.13;100.00
3434;BME280;1730;41.932;25.548;2023-07-22T00:15:57;98996.41;;;26.44;100.00
3434;BME280;1730;41.932;25.548;2023-07-22T00:18:25;98972.81;;;26.32;100.00
3434;BME280;1730;41.932;25.548;2023-07-22T00:20:53;98949.78;;;26.26;100.00
3434;BME280;1730;41.932;25.548;2023-07-22T00:23:18;98977.25;;;26.38;100.00
3434;BME280;1730;41.932;25.548;2023-07-22T00:25:46;98972.91;;;26.15;100.00
3434;BME280;1730;41.932;25.548;2023-07-22T00:28:12;98977.25;;;26.38;100.00
3434;BME280;1730;41.932;25.548;2023-07-22T00:30:37;98981.59;;;26.24;100.00
3434;BME280;1730;41.932;25.548;2023-07-22T00:33:03;98982.28;;;26.14;100.00
3434;BME280;1730;41.932;25.548;2023-07-22T00:35:28;98987.13;;;26.24;100.00
3434;BME280;1730;41.932;25.548;2023-07-22T00:37:54;98979.13;;;26.00;100.00
3434;BME280;1730;41.932;25.548;2023-07-22T00:40:19;98972.28;;;26.08;100.00
3434;BME280;1730;41.932;25.548;2023-07-22T00:42:45;98940.19;;;26.07;100.00
3434;BME280;1730;41.932;25.548;2023-07-22T00:45:10;98957.28;;;25.99;100.00
3434;BME280;1730;41.932;25.548;2023-07-22T00:47:38;98971.75;;;25.79;100.00
3434;BME280;1730;41.932;25.548;2023-07-22T00:50:06;98971.31;;;25.92;100.00
3434;BME280;1730;41.932;25.548;2023-07-22T00:52:36;98981.78;;;25.90;100.00
3434;BME280;1730;41.932;25.548;2023-07-22T00:55:03;98980.09;;;25.84;100.00
3434;BME280;1730;41.932;25.548;2023-07-22T00:57:30;98963.19;;;25.81;100.00
3434;BME280;1730;41.932;25.548;2023-07-22T00:59:56;98996.81;;;25.73;100.00
3434;BME280;1730;41.932;25.548;2023-07-22T01:02:22;99000.78;;;25.82;100.00
3434;BME280;1730;41.932;25.548;2023-07-22T01:04:49;99001.78;;;25.71;100.00
3434;BME280;1730;41.932;25.548;2023-07-22T01:07:17;98928.34;;;25.26;100.00
3434;BME280;1730;41.932;25.548;2023-07-22T01:09:43;98998.25;;;25.80;100.00
3434;BME280;1730;41.932;25.548;2023-07-22T01:12:09;98948.44;;;25.70;100.00
3434;BME280;1730;41.932;25.548;2023-07-22T01:14:36;99000.59;;;25.93;100.00
3434;BME280;1730;41.932;25.548;2023-07-22T01:17:03;98984.78;;;25.57;100.00
3434;BME280;1730;41.932;25.548;2023-07-22T01:19:32;98994.81;;;25.68;100.00
3434;BME280;1730;41.932;25.548;2023-07-22T01:22:00;98994.22;;;25.61;100.00
3434;BME280;1730;41.932;25.548;2023-07-22T01:24:28;98996.81;;;25.73;100.00
3434;BME280;1730;41.932;25.548;2023-07-22T01:26:54;98973.41;;;25.53;100.00
3434;BME280;1730;41.932;25.548;2023-07-22T01:29:21;98999.97;;;25.60;100.00
3434;BME280;1730;41.932;25.548;2023-07-22T01:31:49;98961.25;;;25.33;100.00
3434;BME280;1730;41.932;25.548;2023-07-22T01:34:15;98993.28;;;25.77;100.00
3434;BME280;1730;41.932;25.548;2023-07-22T01:36:40;98973.78;;;25.89;100.00
3434;BME280;1730;41.932;25.548;2023-07-22T01:39:06;98999.94;;;25.81;100.00
3434;BME280;1730;41.932;25.548;2023-07-22T01:41:31;98893.59;;;25.03;100.00
3434;BME280;1730;41.932;25.548;2023-07-22T01:43:57;98967.56;;;25.28;100.00
3434;BME280;1730;41.932;25.548;2023-07-22T01:46:22;99011.56;;;25.56;100.00
3434;BME280;1730;41.932;25.548;2023-07-22T01:48:48;98920.41;;;25.08;100.00
3434;BME280;1730;41.932;25.548;2023-07-22T01:51:14;99007.97;;;25.56;100.00
3434;BME280;1730;41.932;25.548;2023-07-22T01:53:39;99011.94;;;25.65;100.00
3434;BME280;1730;41.932;25.548;2023-07-22T01:56:05;99016.22;;;25.78;100.00
3434;BME280;1730;41.932;25.548;2023-07-22T01:58:31;99013.03;;;25.64;100.00
3434;BME280;1730;41.932;25.548;2023-07-22T02:00:56;99022.25;;;25.75;100.00
3434;BME280;1730;41.932;25.548;2023-07-22T02:03:22;98917.13;;;25.11;100.00
3434;BME280;1730;41.932;25.548;2023-07-22T02:05:47;98949.28;;;25.00;100.00
3434;BME280;1730;41.932;25.548;2023-07-22T02:08:13;99024.38;;;25.24;100.00
3434;BME280;1730;41.932;25.548;2023-07-22T02:10:38;99041.53;;;25.26;100.00
3434;BME280;1730;41.932;25.548;2023-07-22T02:13:04;99023.50;;;25.40;100.00
3434;BME280;1730;41.932;25.548;2023-07-22T02:15:32;99018.16;;;25.34;100.00
3434;BME280;1730;41.932;25.548;2023-07-22T02:17:57;99014.69;;;25.22;100.00
3434;BME280;1730;41.932;25.548;2023-07-22T02:20:23;99018.59;;;25.04;100.00
3434;BME280;1730;41.932;25.548;2023-07-22T02:22:49;99026.19;;;25.13;100.00
3434;BME280;1730;41.932;25.548;2023-07-22T02:25:14;99031.25;;;25.22;100.00
3434;BME280;1730;41.932;25.548;2023-07-22T02:27:40;99032.72;;;25.07;100.00
3434;BME280;1730;41.932;25.548;2023-07-22T02:30:07;99044.72;;;24.96;100.00
3434;BME280;1730;41.932;25.548;2023-07-22T02:32:40;99062.16;;;25.02;100.00
3434;BME280;1730;41.932;25.548;2023-07-22T02:35:07;99072.34;;;25.18;100.00
3434;BME280;1730;41.932;25.548;2023-07-22T02:37:34;99073.19;;;24.85;100.00
3434;BME280;1730;41.932;25.548;2023-07-22T02:40:00;99128.72;;;24.55;100.00
3434;BME280;1730;41.932;25.548;2023-07-22T02:42:25;99156.81;;;24.12;100.00
3434;BME280;1730;41.932;25.548;2023-07-22T02:44:51;99193.87;;;24.16;100.00
3434;BME280;1730;41.932;25.548;2023-07-22T02:47:17;99085.53;;;23.48;100.00
3434;BME280;1730;41.932;25.548;2023-07-22T02:49:43;99186.16;;;24.30;100.00
3434;BME280;1730;41.932;25.548;2023-07-22T02:52:08;99174.72;;;24.38;100.00
3434;BME280;1730;41.932;25.548;2023-07-22T02:54:39;99151.19;;;24.47;100.00
3434;BME280;1730;41.932;25.548;2023-07-22T02:57:06;99135.41;;;24.59;100.00
3434;BME280;1730;41.932;25.548;2023-07-22T02:59:33;99125.19;;;24.60;100.00
3434;BME280;1730;41.932;25.548;2023-07-22T03:01:58;99127.38;;;24.75;100.00
3434;BME280;1730;41.932;25.548;2023-07-22T03:04:24;99134.13;;;24.67;100.00
3434;BME280;1730;41.932;25.548;2023-07-22T03:06:50;99152.00;;;24.48;100.00
3434;BME280;1730;41.932;25.548;2023-07-22T03:09:16;99167.59;;;24.14;100.00
3434;BME280;1730;41.932;25.548;2023-07-22T03:11:41;99095.25;;;23.50;100.00
3434;BME280;1730;41.932;25.548;2023-07-22T03:14:06;99177.41;;;23.82;100.00
3434;BME280;1730;41.932;25.548;2023-07-22T03:16:32;99239.19;;;23.86;100.00
3434;BME280;1730;41.932;25.548;2023-07-22T03:18:57;99228.06;;;23.80;100.00
3434;BME280;1730;41.932;25.548;2023-07-22T03:21:23;99257.50;;;23.92;100.00
3434;BME280;1730;41.932;25.548;2023-07-22T03:23:49;99252.56;;;24.05;100.00
3434;BME280;1730;41.932;25.548;2023-07-22T03:26:14;99248.34;;;24.14;100.00
3434;BME280;1730;41.932;25.548;2023-07-22T03:28:40;99236.97;;;24.22;100.00
3434;BME280;1730;41.932;25.548;2023-07-22T03:31:07;99221.97;;;24.30;100.00
3434;BME280;1730;41.932;25.548;2023-07-22T03:33:36;99184.16;;;24.02;100.00
3434;BME280;1730;41.932;25.548;2023-07-22T03:36:01;99210.34;;;24.56;100.00
3434;BME280;1730;41.932;25.548;2023-07-22T03:38:27;99107.53;;;24.28;100.00
3434;BME280;1730;41.932;25.548;2023-07-22T03:40:52;99145.22;;;24.39;100.00
3434;BME280;1730;41.932;25.548;2023-07-22T03:43:21;99189.47;;;24.77;100.00
3434;BME280;1730;41.932;25.548;2023-07-22T03:45:46;99186.09;;;24.87;100.00
3434;BME280;1730;41.932;25.548;2023-07-22T03:48:12;99164.44;;;24.95;100.00
3434;BME280;1730;41.932;25.548;2023-07-22T03:50:37;99150.38;;;25.52;100.00
3434;BME280;1730;41.932;25.548;2023-07-22T03:53:03;99091.41;;;25.41;100.00
3434;BME280;1730;41.932;25.548;2023-07-22T03:55:28;99115.75;;;25.83;100.00
3434;BME280;1730;41.932;25.548;2023-07-22T03:57:54;99115.50;;;25.84;100.00
3434;BME280;1730;41.932;25.548;2023-07-22T04:00:20;99104.25;;;26.44;100.00
3434;BME280;1730;41.932;25.548;2023-07-22T04:02:46;99094.69;;;26.57;100.00
3434;BME280;1730;41.932;25.548;2023-07-22T04:05:12;99086.97;;;26.91;100.00
3434;BME280;1730;41.932;25.548;2023-07-22T04:07:37;98984.28;;;26.19;100.00
3434;BME280;1730;41.932;25.548;2023-07-22T04:10:03;99090.91;;;26.68;100.00
3434;BME280;1730;41.932;25.548;2023-07-22T04:12:29;99096.09;;;26.92;100.00
3434;BME280;1730;41.932;25.548;2023-07-22T04:14:54;99095.81;;;26.88;100.00
3434;BME280;1730;41.932;25.548;2023-07-22T04:17:20;99106.09;;;26.93;100.00
3434;BME280;1730;41.932;25.548;2023-07-22T04:19:45;99091.75;;;27.01;100.00
3434;BME280;1730;41.932;25.548;2023-07-22T04:22:11;99095.50;;;27.26;100.00
3434;BME280;1730;41.932;25.548;2023-07-22T04:24:37;99000.50;;;26.79;100.00
3434;BME280;1730;41.932;25.548;2023-07-22T04:27:03;99085.84;;;27.86;100.00
3434;BME280;1730;41.932;25.548;2023-07-22T04:29:28;99083.91;;;27.97;100.00
3434;BME280;1730;41.932;25.548;2023-07-22T04:32:01;99071.75;;;28.08;100.00
3434;BME280;1730;41.932;25.548;2023-07-22T04:34:30;99074.59;;;28.33;100.00
3434;BME280;1730;41.932;25.548;2023-07-22T04:36:56;99066.84;;;28.71;100.00
3434;BME280;1730;41.932;25.548;2023-07-22T04:39:21;99065.47;;;28.48;100.00
3434;BME280;1730;41.932;25.548;2023-07-22T04:41:47;98966.09;;;28.40;100.00
3434;BME280;1730;41.932;25.548;2023-07-22T04:44:12;98941.34;;;28.79;100.00
3434;BME280;1730;41.932;25.548;2023-07-22T04:46:38;98895.31;;;28.73;100.00
3434;BME280;1730;41.932;25.548;2023-07-22T04:49:03;98971.94;;;28.13;100.00
3434;BME280;1730;41.932;25.548;2023-07-22T04:51:29;99060.19;;;29.81;100.00
3434;BME280;1730;41.932;25.548;2023-07-22T04:53:55;99035.81;;;29.63;100.00
3434;BME280;1730;41.932;25.548;2023-07-22T04:56:20;99059.69;;;30.23;100.00
3434;BME280;1730;41.932;25.548;2023-07-22T04:58:46;99043.00;;;30.23;100.00
3434;BME280;1730;41.932;25.548;2023-07-22T05:01:11;99052.09;;;29.90;100.00
3434;BME280;1730;41.932;25.548;2023-07-22T05:03:37;99057.94;;;30.32;100.00
3434;BME280;1730;41.932;25.548;2023-07-22T05:06:03;99075.75;;;30.36;100.00
3434;BME280;1730;41.932;25.548;2023-07-22T05:08:28;99024.06;;;30.59;100.00
3434;BME280;1730;41.932;25.548;2023-07-22T05:10:54;99039.78;;;30.79;100.00
3434;BME280;1730;41.932;25.548;2023-07-22T05:13:21;99035.63;;;31.29;100.00
3434;BME280;1730;41.932;25.548;2023-07-22T05:15:47;99016.06;;;31.58;100.00
3434;BME280;1730;41.932;25.548;2023-07-22T05:18:12;99041.16;;;31.34;100.00
3434;BME280;1730;41.932;25.548;2023-07-22T05:20:38;99053.03;;;31.45;100.00
3434;BME280;1730;41.932;25.548;2023-07-22T05:23:04;99044.56;;;31.55;100.00
3434;BME280;1730;41.932;25.548;2023-07-22T05:25:30;99043.81;;;31.44;100.00
3434;BME280;1730;41.932;25.548;2023-07-22T05:27:55;99044.34;;;31.70;100.00
3434;BME280;1730;41.932;25.548;2023-07-22T05:30:21;99050.38;;;31.77;100.00
3434;BME280;1730;41.932;25.548;2023-07-22T05:32:46;99030.44;;;31.46;100.00
3434;BME280;1730;41.932;25.548;2023-07-22T05:35:12;99015.13;;;31.20;100.00
3434;BME280;1730;41.932;25.548;2023-07-22T05:37:37;99006.06;;;31.75;100.00
3434;BME280;1730;41.932;25.548;2023-07-22T05:40:03;99030.38;;;31.94;100.00
3434;BME280;1730;41.932;25.548;2023-07-22T05:42:29;99036.16;;;32.35;100.00
3434;BME280;1730;41.932;25.548;2023-07-22T05:44:58;99042.06;;;32.84;100.00
3434;BME280;1730;41.932;25.548;2023-07-22T05:47:24;99039.31;;;33.12;100.00
3434;BME280;1730;41.932;25.548;2023-07-22T05:49:52;99042.88;;;32.71;100.00
3434;BME280;1730;41.932;25.548;2023-07-22T05:52:20;99035.22;;;33.64;100.00
3434;BME280;1730;41.932;25.548;2023-07-22T05:54:49;99035.78;;;32.92;100.00
3434;BME280;1730;41.932;25.548;2023-07-22T05:57:15;99023.09;;;33.27;100.00
3434;BME280;1730;41.932;25.548;2023-07-22T05:59:41;99016.28;;;33.20;100.00
3434;BME280;1730;41.932;25.548;2023-07-22T06:02:08;98979.59;;;32.94;100.00
3434;BME280;1730;41.932;25.548;2023-07-22T06:04:36;99034.56;;;32.47;100.00
3434;BME280;1730;41.932;25.548;2023-07-22T06:07:03;99034.22;;;31.98;100.00
3434;BME280;1730;41.932;25.548;2023-07-22T06:09:29;99027.16;;;31.82;100.00
3434;BME280;1730;41.932;25.548;2023-07-22T06:11:54;99012.50;;;31.76;100.00
3434;BME280;1730;41.932;25.548;2023-07-22T06:14:20;99031.63;;;32.39;100.00
3434;BME280;1730;41.932;25.548;2023-07-22T06:16:45;99012.06;;;31.64;100.00
3434;BME280;1730;41.932;25.548;2023-07-22T06:19:11;99033.19;;;32.82;100.00
3434;BME280;1730;41.932;25.548;2023-07-22T06:21:36;99023.25;;;32.39;100.00
3434;BME280;1730;41.932;25.548;2023-07-22T06:24:02;99018.84;;;32.38;100.00
3434;BME280;1730;41.932;25.548;2023-07-22T06:26:27;99022.59;;;32.79;100.00
3434;BME280;1730;41.932;25.548;2023-07-22T06:28:54;98991.69;;;32.25;100.00
3434;BME280;1730;41.932;25.548;2023-07-22T06:31:20;98851.28;;;31.17;100.00
3434;BME280;1730;41.932;25.548;2023-07-22T06:33:45;99030.31;;;31.56;100.00
3434;BME280;1730;41.932;25.548;2023-07-22T06:36:11;99038.16;;;32.15;100.00
3434;BME280;1730;41.932;25.548;2023-07-22T06:38:36;98964.84;;;31.72;100.00
3434;BME280;1730;41.932;25.548;2023-07-22T06:41:02;99040.72;;;32.31;100.00
3434;BME280;1730;41.932;25.548;2023-07-22T06:43:28;99038.59;;;32.23;100.00
3434;BME280;1730;41.932;25.548;2023-07-22T06:45:53;99011.84;;;31.60;100.00
3434;BME280;1730;41.932;25.548;2023-07-22T06:48:19;99027.50;;;32.36;100.00
3434;BME280;1730;41.932;25.548;2023-07-22T06:50:48;98972.28;;;31.77;100.00
3434;BME280;1730;41.932;25.548;2023-07-22T06:53:14;98949.16;;;31.77;100.00
3434;BME280;1730;41.932;25.548;2023-07-22T06:55:40;99015.13;;;32.05;100.00
3434;BME280;1730;41.932;25.548;2023-07-22T06:58:12;99033.78;;;32.09;100.00
3434;BME280;1730;41.932;25.548;2023-07-22T07:00:38;98931.66;;;31.90;100.00
3434;BME280;1730;41.932;25.548;2023-07-22T07:03:05;99030.91;;;33.30;100.00
3434;BME280;1730;41.932;25.548;2023-07-22T07:05:30;99025.37;;;34.16;100.00
3434;BME280;1730;41.932;25.548;2023-07-22T07:07:56;99027.09;;;34.39;100.00
3434;BME280;1730;41.932;25.548;2023-07-22T07:10:21;99025.19;;;34.12;100.00
3434;BME280;1730;41.932;25.548;2023-07-22T07:12:46;99030.25;;;33.20;100.00
3434;BME280;1730;41.932;25.548;2023-07-22T07:15:12;99035.31;;;33.45;100.00
3434;BME280;1730;41.932;25.548;2023-07-22T07:17:39;99037.31;;;32.85;100.00
3434;BME280;1730;41.932;25.548;2023-07-22T07:20:05;99035.53;;;33.76;100.00
3434;BME280;1730;41.932;25.548;2023-07-22T07:22:31;99033.97;;;33.15;100.00
3434;BME280;1730;41.932;25.548;2023-07-22T07:24:56;98947.66;;;32.35;100.00
3434;BME280;1730;41.932;25.548;2023-07-22T07:27:22;99038.03;;;32.77;100.00
3434;BME280;1730;41.932;25.548;2023-07-22T07:29:47;99043.06;;;32.42;100.00
3434;BME280;1730;41.932;25.548;2023-07-22T07:32:13;99044.56;;;32.86;100.00
3434;BME280;1730;41.932;25.548;2023-07-22T07:34:39;99044.88;;;32.84;100.00
3434;BME280;1730;41.932;25.548;2023-07-22T07:37:05;99036.06;;;32.58;100.00
3434;BME280;1730;41.932;25.548;2023-07-22T07:39:30;99022.72;;;32.55;100.00
3434;BME280;1730;41.932;25.548;2023-07-22T07:41:58;99047.53;;;33.35;100.00
3434;BME280;1730;41.932;25.548;2023-07-22T07:44:23;99052.09;;;33.59;100.00
3434;BME280;1730;41.932;25.548;2023-07-22T07:46:49;99025.50;;;33.20;100.00
3434;BME280;1730;41.932;25.548;2023-07-22T07:49:15;99049.50;;;32.75;100.00
3434;BME280;1730;41.932;25.548;2023-07-22T07:51:41;99047.87;;;33.61;100.00
3434;BME280;1730;41.932;25.548;2023-07-22T07:54:07;99047.78;;;33.39;100.00
3434;BME280;1730;41.932;25.548;2023-07-22T07:56:33;99024.56;;;33.52;100.00
3434;BME280;1730;41.932;25.548;2023-07-22T07:58:59;99022.47;;;33.44;100.00
3434;BME280;1730;41.932;25.548;2023-07-22T08:01:24;99054.41;;;33.70;100.00
3434;BME280;1730;41.932;25.548;2023-07-22T08:03:49;98968.72;;;33.47;100.00
3434;BME280;1730;41.932;25.548;2023-07-22T08:06:15;99052.94;;;33.86;100.00
3434;BME280;1730;41.932;25.548;2023-07-22T08:08:41;99044.62;;;33.27;100.00
3434;BME280;1730;41.932;25.548;2023-07-22T08:11:12;99048.94;;;33.05;100.00
3434;BME280;1730;41.932;25.548;2023-07-22T08:13:39;99038.50;;;33.11;100.00
3434;BME280;1730;41.932;25.548;2023-07-22T08:16:06;99036.59;;;33.39;100.00
3434;BME280;1730;41.932;25.548;2023-07-22T08:18:33;99034.50;;;33.31;100.00
3434;BME280;1730;41.932;25.548;2023-07-22T08:20:59;99014.81;;;33.49;100.00
3434;BME280;1730;41.932;25.548;2023-07-22T08:23:25;98998.56;;;33.51;100.00
3434;BME280;1730;41.932;25.548;2023-07-22T08:25:50;99025.69;;;33.92;100.00
3434;BME280;1730;41.932;25.548;2023-07-22T08:28:16;99027.66;;;33.37;100.00
3434;BME280;1730;41.932;25.548;2023-07-22T08:30:42;99029.62;;;33.50;100.00
3434;BME280;1730;41.932;25.548;2023-07-22T08:33:10;99029.75;;;33.72;100.00
3434;BME280;1730;41.932;25.548;2023-07-22T08:35:38;99027.47;;;33.47;100.00
3434;BME280;1730;41.932;25.548;2023-07-22T08:38:05;99013.56;;;33.15;100.00
3434;BME280;1730;41.932;25.548;2023-07-22T08:40:36;99020.41;;;33.36;100.00
3434;BME280;1730;41.932;25.548;2023-07-22T08:43:03;99000.00;;;33.35;100.00
3434;BME280;1730;41.932;25.548;2023-07-22T08:45:31;99035.09;;;33.96;100.00
3434;BME280;1730;41.932;25.548;2023-07-22T08:48:03;99028.31;;;34.11;100.00
3434;BME280;1730;41.932;25.548;2023-07-22T08:50:49;99032.59;;;33.94;100.00
3434;BME280;1730;41.932;25.548;2023-07-22T08:53:15;99009.66;;;33.43;100.00
3434;BME280;1730;41.932;25.548;2023-07-22T08:55:42;99020.94;;;33.65;100.00
3434;BME280;1730;41.932;25.548;2023-07-22T08:58:08;99010.87;;;33.50;100.00
3434;BME280;1730;41.932;25.548;2023-07-22T09:00:35;98966.06;;;33.91;100.00
3434;BME280;1730;41.932;25.548;2023-07-22T09:03:01;99001.38;;;34.37;100.00
3434;BME280;1730;41.932;25.548;2023-07-22T09:05:28;99005.59;;;34.48;100.00
3434;BME280;1730;41.932;25.548;2023-07-22T09:07:55;98994.81;;;34.42;100.00
3434;BME280;1730;41.932;25.548;2023-07-22T09:10:22;98998.91;;;34.35;100.00
3434;BME280;1730;41.932;25.548;2023-07-22T09:12:50;99000.63;;;33.73;100.00
3434;BME280;1730;41.932;25.548;2023-07-22T09:15:16;98993.69;;;34.07;100.00
3434;BME280;1730;41.932;25.548;2023-07-22T09:17:42;98939.16;;;33.82;100.00
3434;BME280;1730;41.932;25.548;2023-07-22T09:20:08;98996.59;;;34.37;100.00
3434;BME280;1730;41.932;25.548;2023-07-22T09:22:37;98988.59;;;34.22;100.00
3434;BME280;1730;41.932;25.548;2023-07-22T09:25:13;99008.38;;;34.48;100.00
3434;BME280;1730;41.932;25.548;2023-07-22T09:27:40;98992.47;;;34.57;100.00
3434;BME280;1730;41.932;25.548;2023-07-22T09:30:20;98996.13;;;34.89;100.00
3434;BME280;1730;41.932;25.548;2023-07-22T09:32:46;98990.22;;;34.46;100.00
3434;BME280;1730;41.932;25.548;2023-07-22T09:35:12;98986.09;;;34.43;100.00
3434;BME280;1730;41.932;25.548;2023-07-22T09:37:38;98976.69;;;34.39;100.00
3434;BME280;1730;41.932;25.548;2023-07-22T09:40:14;98984.50;;;34.73;100.00
3434;BME280;1730;41.932;25.548;2023-07-22T09:42:46;98978.06;;;34.50;100.00
3434;BME280;1730;41.932;25.548;2023-07-22T09:45:12;98979.84;;;34.46;100.00
3434;BME280;1730;41.932;25.548;2023-07-22T09:47:43;98982.69;;;34.10;100.00
3434;BME280;1730;41.932;25.548;2023-07-22T09:50:16;98978.19;;;34.01;100.00
3434;BME280;1730;41.932;25.548;2023-07-22T09:55:17;98968.34;;;34.25;100.00
3434;BME280;1730;41.932;25.548;2023-07-22T09:57:45;98964.53;;;34.66;100.00
3434;BME280;1730;41.932;25.548;2023-07-22T10:00:13;98960.69;;;35.23;100.00
3434;BME280;1730;41.932;25.548;2023-07-22T10:02:42;98964.41;;;35.58;100.00
3434;BME280;1730;41.932;25.548;2023-07-22T10:05:14;98962.06;;;35.52;100.00
3434;BME280;1730;41.932;25.548;2023-07-22T10:07:44;98953.44;;;35.22;100.00
3434;BME280;1730;41.932;25.548;2023-07-22T10:10:12;98950.78;;;35.26;100.00
3434;BME280;1730;41.932;25.548;2023-07-22T10:12:39;98949.09;;;35.16;100.00
3434;BME280;1730;41.932;25.548;2023-07-22T10:15:06;98945.50;;;35.24;100.00
3434;BME280;1730;41.932;25.548;2023-07-22T10:17:33;98935.66;;;34.96;100.00
3434;BME280;1730;41.932;25.548;2023-07-22T10:19:59;98928.97;;;35.14;100.00
3434;BME280;1730;41.932;25.548;2023-07-22T10:22:26;98813.75;;;34.15;100.00
3434;BME280;1730;41.932;25.548;2023-07-22T10:24:53;98889.78;;;34.53;100.00
3434;BME280;1730;41.932;25.548;2023-07-22T10:27:20;98917.91;;;35.09;100.00
3434;BME280;1730;41.932;25.548;2023-07-22T10:29:47;98909.97;;;35.11;100.00
3434;BME280;1730;41.932;25.548;2023-07-22T10:32:15;98907.09;;;34.94;100.00
3434;BME280;1730;41.932;25.548;2023-07-22T10:34:42;98892.75;;;35.35;100.00
3434;BME280;1730;41.932;25.548;2023-07-22T10:37:09;98859.06;;;35.26;100.00
3434;BME280;1730;41.932;25.548;2023-07-22T10:39:36;98905.34;;;36.06;100.00
3434;BME280;1730;41.932;25.548;2023-07-22T10:42:03;98871.31;;;35.82;100.00
3434;BME280;1730;41.932;25.548;2023-07-22T10:44:33;98897.56;;;35.95;100.00
3434;BME280;1730;41.932;25.548;2023-07-22T10:47:01;98791.91;;;35.39;100.00
3434;BME280;1730;41.932;25.548;2023-07-22T10:49:45;98894.59;;;36.17;98.21
3434;BME280;1730;41.932;25.548;2023-07-22T10:52:12;98891.72;;;36.60;97.55
3434;BME280;1730;41.932;25.548;2023-07-22T10:54:40;98859.22;;;36.33;99.07
3434;BME280;1730;41.932;25.548;2023-07-22T10:59:49;98892.31;;;35.85;100.00
3434;BME280;1730;41.932;25.548;2023-07-22T11:04:50;98867.69;;;35.82;100.00
3434;BME280;1730;41.932;25.548;2023-07-22T11:07:30;98793.88;;;35.47;100.00
3434;BME280;1730;41.932;25.548;2023-07-22T11:09:56;98870.88;;;36.52;86.19
3434;BME280;1730;41.932;25.548;2023-07-22T11:12:24;98873.53;;;36.95;88.43
3434;BME280;1730;41.932;25.548;2023-07-22T11:15:02;98868.53;;;37.10;85.56
3434;BME280;1730;41.932;25.548;2023-07-22T11:17:30;98871.53;;;37.34;79.17
3434;BME280;1730;41.932;25.548;2023-07-22T11:19:57;98872.56;;;37.29;80.65
3434;BME280;1730;41.932;25.548;2023-07-22T11:22:22;98832.19;;;36.96;81.71
3434;BME280;1730;41.932;25.548;2023-07-22T11:24:48;98865.59;;;37.27;83.90
3434;BME280;1730;41.932;25.548;2023-07-22T11:27:13;98850.87;;;37.30;84.41
3434;BME280;1730;41.932;25.548;2023-07-22T11:29:40;98868.66;;;37.84;81.62
3434;BME280;1730;41.932;25.548;2023-07-22T11:32:06;98761.47;;;37.47;76.72
3434;BME280;1730;41.932;25.548;2023-07-22T11:34:40;98860.97;;;37.93;78.56
3434;BME280;1730;41.932;25.548;2023-07-22T11:37:06;98847.69;;;37.94;76.52
3434;BME280;1730;41.932;25.548;2023-07-22T11:39:31;98861.31;;;38.12;75.91
3434;BME280;1730;41.932;25.548;2023-07-22T11:42:00;98861.12;;;38.29;74.80
3434;BME280;1730;41.932;25.548;2023-07-22T11:44:27;98859.88;;;38.06;71.71
3434;BME280;1730;41.932;25.548;2023-07-22T11:46:58;98857.81;;;38.27;70.72
3434;BME280;1730;41.932;25.548;2023-07-22T11:51:53;98851.22;;;38.23;60.04
3434;BME280;1730;41.932;25.548;2023-07-22T11:54:21;98824.66;;;38.00;57.05
3434;BME280;1730;41.932;25.548;2023-07-22T11:56:47;98850.50;;;38.14;58.38
3434;BME280;1730;41.932;25.548;2023-07-22T11:59:12;98854.12;;;38.15;62.45
3434;BME280;1730;41.932;25.548;2023-07-22T12:01:38;98837.53;;;38.01;66.58
3434;BME280;1730;41.932;25.548;2023-07-22T12:04:10;98848.28;;;37.87;64.17
3434;BME280;1730;41.932;25.548;2023-07-22T12:06:36;98841.38;;;37.97;62.60
3434;BME280;1730;41.932;25.548;2023-07-22T12:09:02;98847.91;;;37.88;60.90
3434;BME280;1730;41.932;25.548;2023-07-22T12:11:32;98837.44;;;37.77;59.72
3434;BME280;1730;41.932;25.548;2023-07-22T12:16:35;98733.34;;;36.85;60.75
3434;BME280;1730;41.932;25.548;2023-07-22T12:19:02;98832.00;;;37.51;60.51
3434;BME280;1730;41.932;25.548;2023-07-22T12:21:28;98837.75;;;37.34;68.14
3434;BME280;1730;41.932;25.548;2023-07-22T12:23:54;98827.28;;;37.64;66.75
3434;BME280;1730;41.932;25.548;2023-07-22T12:26:20;98819.09;;;37.71;62.13
3434;BME280;1730;41.932;25.548;2023-07-22T12:28:45;98820.31;;;37.82;63.98
3434;BME280;1730;41.932;25.548;2023-07-22T12:31:11;98816.00;;;37.97;63.08
3434;BME280;1730;41.932;25.548;2023-07-22T12:33:37;98816.31;;;38.04;59.74
3434;BME280;1730;41.932;25.548;2023-07-22T12:36:02;98802.84;;;37.88;61.66
3434;BME280;1730;41.932;25.548;2023-07-22T12:38:28;98784.88;;;37.81;62.14
3434;BME280;1730;41.932;25.548;2023-07-22T12:40:53;98791.00;;;38.16;64.56
3434;BME280;1730;41.932;25.548;2023-07-22T12:43:19;98792.28;;;38.18;63.70
3434;BME280;1730;41.932;25.548;2023-07-22T12:45:44;98791.28;;;38.35;63.37
3434;BME280;1730;41.932;25.548;2023-07-22T12:48:10;98749.78;;;38.23;59.57
3434;BME280;1730;41.932;25.548;2023-07-22T12:50:35;98790.59;;;38.62;58.42
3434;BME280;1730;41.932;25.548;2023-07-22T12:53:02;98784.13;;;38.62;55.96
3434;BME280;1730;41.932;25.548;2023-07-22T12:55:28;98775.16;;;38.23;56.24
3434;BME280;1730;41.932;25.548;2023-07-22T12:57:53;98752.69;;;38.03;56.83
3434;BME280;1730;41.932;25.548;2023-07-22T13:00:20;98758.94;;;38.08;54.25
3434;BME280;1730;41.932;25.548;2023-07-22T13:02:47;98766.25;;;38.33;53.94
3434;BME280;1730;41.932;25.548;2023-07-22T13:05:13;98765.16;;;38.14;53.71
3434;BME280;1730;41.932;25.548;2023-07-22T13:07:38;98746.38;;;38.18;52.75
3434;BME280;1730;41.932;25.548;2023-07-22T13:10:05;98730.16;;;38.15;53.57
3434;BME280;1730;41.932;25.548;2023-07-22T13:12:37;98761.94;;;38.60;51.77